createdAt,value
2022-11-18T00:04:40.152Z,99844.00
2022-11-18T00:09:42.971Z,99843.13
2022-11-18T00:14:47.745Z,99846.56
2022-11-18T00:19:50.608Z,99852.53
2022-11-18T00:24:53.401Z,99846.28
2022-11-18T00:29:57.623Z,99855.19
2022-11-18T00:35:00.501Z,99852.38
2022-11-18T00:40:03.345Z,99867.88
2022-11-18T00:45:08.397Z,99867.06
2022-11-18T00:50:11.452Z,99874.78
2022-11-18T00:55:14.332Z,99868.97
2022-11-18T01:00:19.158Z,99886.72
2022-11-18T01:05:22.069Z,99880.50
2022-11-18T01:10:24.893Z,99889.97
2022-11-18T01:15:29.037Z,99889.53
2022-11-18T01:20:33.133Z,99900.41
2022-11-18T01:25:37.262Z,99904.63
2022-11-18T01:30:43.089Z,99898.78
2022-11-18T01:35:46.292Z,99904.34
2022-11-18T01:40:49.176Z,99912.19
2022-11-18T01:45:54.885Z,99916.91
2022-11-18T01:51:01.796Z,99909.63
2022-11-18T01:56:09.207Z,99911.25
2022-11-18T02:01:14.156Z,99917.38
2022-11-18T02:06:17.656Z,99927.41
2022-11-18T02:11:37.797Z,99942.00
2022-11-18T02:17:01.594Z,99943.25
2022-11-18T02:22:19.844Z,99932.47
2022-11-18T02:27:57.472Z,99944.13
2022-11-18T02:33:08.812Z,99939.50
2022-11-18T02:38:15.537Z,99937.50
2022-11-18T02:43:22.958Z,99938.72
2022-11-18T02:48:31.147Z,99945.59
2022-11-18T02:53:36.069Z,99940.78
2022-11-18T02:58:39.000Z,99950.06
2022-11-18T03:03:43.130Z,99944.88
2022-11-18T03:08:51.222Z,99962.97
2022-11-18T03:14:07.831Z,99959.22
2022-11-18T03:19:21.414Z,99962.97
2022-11-18T03:24:34.439Z,99971.19
2022-11-18T03:29:41.442Z,99980.63
2022-11-18T03:34:50.416Z,99979.25
2022-11-18T03:39:55.823Z,99981.09
2022-11-18T03:45:06.021Z,99983.94
2022-11-18T03:50:16.913Z,99978.09
2022-11-18T03:55:24.698Z,99986.28
2022-11-18T04:00:30.921Z,99981.28
2022-11-18T04:05:39.802Z,99987.72
2022-11-18T04:10:48.106Z,99994.72
2022-11-18T04:15:51.292Z,100005.75
2022-11-18T04:20:55.523Z,100012.16
2022-11-18T04:25:58.312Z,100025.25
2022-11-18T04:31:01.028Z,100033.94
2022-11-18T04:36:05.685Z,100034.41
2022-11-18T04:41:08.454Z,100031.03
2022-11-18T04:46:11.199Z,100041.28
2022-11-18T04:51:15.401Z,100041.47
2022-11-18T04:56:18.109Z,100047.44
2022-11-18T05:01:20.938Z,100053.63
2022-11-18T05:06:25.450Z,100057.50
2022-11-18T05:11:46.022Z,100063.81
2022-11-18T05:16:48.812Z,100072.81
2022-11-18T05:21:53.393Z,100084.47
2022-11-18T05:26:56.234Z,100085.69
2022-11-18T05:31:59.127Z,100084.16
2022-11-18T05:37:03.414Z,100091.50
2022-11-18T05:42:24.032Z,100095.38
2022-11-18T05:47:27.056Z,100106.19
2022-11-18T05:52:31.205Z,100106.19
2022-11-18T05:57:34.991Z,100111.03
2022-11-18T06:02:38.666Z,100126.03
2022-11-18T06:07:44.764Z,100129.00
2022-11-18T06:12:52.566Z,100136.94
2022-11-18T06:18:00.292Z,100142.03
2022-11-18T06:23:04.406Z,100139.34
2022-11-18T06:28:07.532Z,100146.53
2022-11-18T06:33:10.346Z,100160.31
2022-11-18T06:38:14.616Z,100175.59
2022-11-18T06:43:34.686Z,100168.56
2022-11-18T06:48:38.223Z,100173.19
2022-11-18T06:53:42.397Z,100186.97
2022-11-18T06:58:45.976Z,100179.94
2022-11-18T07:03:49.260Z,100199.72
2022-11-18T07:08:53.894Z,100203.00
2022-11-18T07:13:57.558Z,100208.41
2022-11-18T07:19:00.328Z,100210.19
2022-11-18T07:24:06.981Z,100219.06
2022-11-18T07:29:10.304Z,100224.59
2022-11-18T07:34:14.175Z,100233.13
2022-11-18T07:39:18.650Z,100237.66
2022-11-18T07:44:21.567Z,100251.53
2022-11-18T07:49:24.267Z,100256.66
2022-11-18T07:54:28.397Z,100261.75
2022-11-18T07:59:31.148Z,100278.53
2022-11-18T08:04:34.016Z,100279.00
2022-11-18T08:09:38.213Z,100282.47
2022-11-18T08:14:41.284Z,100305.19
2022-11-18T08:19:44.143Z,100298.91
2022-11-18T08:24:48.427Z,100300.56
2022-11-18T08:29:51.311Z,100306.59
2022-11-18T08:34:54.079Z,100319.00
2022-11-18T08:39:58.203Z,100323.97
2022-11-18T08:45:01.432Z,100321.44
2022-11-18T08:50:05.015Z,100328.03
2022-11-18T08:55:09.675Z,100338.66
2022-11-18T09:00:14.277Z,100347.34
2022-11-18T09:05:17.177Z,100349.31
2022-11-18T09:10:21.435Z,100351.41
2022-11-18T09:15:26.243Z,100359.69
2022-11-18T09:20:29.059Z,100360.56
2022-11-18T09:25:33.234Z,100374.16
2022-11-18T09:30:36.029Z,100370.91
2022-11-18T09:35:43.126Z,100385.13
2022-11-18T09:40:56.749Z,100379.28
2022-11-18T09:46:10.967Z,100392.66
2022-11-18T09:51:13.944Z,100406.31
2022-11-18T09:56:18.877Z,100412.31
2022-11-18T10:01:22.354Z,100413.06
2022-11-18T10:06:27.492Z,100418.50
2022-11-18T10:11:42.066Z,100422.38
2022-11-18T10:16:57.993Z,100431.69
2022-11-18T10:22:24.056Z,100429.44
2022-11-18T10:27:36.708Z,100444.28
2022-11-18T10:32:54.631Z,100438.16
2022-11-18T10:38:08.315Z,100446.88
2022-11-18T10:43:13.713Z,100451.66
2022-11-18T10:48:19.247Z,100451.22
2022-11-18T10:53:31.723Z,100460.50
2022-11-18T10:58:38.623Z,100462.00
2022-11-18T11:03:44.152Z,100468.63
2022-11-18T11:08:51.231Z,100465.78
2022-11-18T11:14:03.002Z,100463.72
2022-11-18T11:19:10.644Z,100474.84
2022-11-18T11:24:13.521Z,100480.34
2022-11-18T11:29:30.314Z,100481.22
2022-11-18T11:34:42.395Z,100482.59
2022-11-18T11:40:03.694Z,100492.06
2022-11-18T11:45:20.303Z,100496.53
2022-11-18T11:50:27.811Z,100500.59
2022-11-18T11:55:47.040Z,100503.72
2022-11-18T12:01:05.125Z,100513.06
2022-11-18T12:06:10.961Z,100514.72
2022-11-18T12:11:22.099Z,100527.59
2022-11-18T12:16:34.743Z,100518.59
2022-11-18T12:21:58.184Z,100524.47
2022-11-18T12:27:03.142Z,100541.56
2022-11-18T12:32:26.819Z,100545.88
2022-11-18T12:37:49.074Z,100546.06
2022-11-18T12:43:09.098Z,100540.41
2022-11-18T12:48:38.681Z,100541.00
2022-11-18T12:53:43.968Z,100547.16
2022-11-18T12:58:48.317Z,100555.41
2022-11-18T13:03:53.592Z,100552.56
2022-11-18T13:09:00.446Z,100556.44
2022-11-18T13:14:23.348Z,100553.00
2022-11-18T13:19:27.709Z,100561.09
2022-11-18T13:24:30.472Z,100571.84
2022-11-18T13:29:52.599Z,100578.44
2022-11-18T13:35:00.447Z,100582.47
2022-11-18T13:40:03.561Z,100586.88
2022-11-18T13:45:07.314Z,100586.81
2022-11-18T13:50:20.846Z,100589.13
2022-11-18T13:55:26.174Z,100597.53
2022-11-18T14:00:30.809Z,100601.75
2022-11-18T14:05:35.307Z,100601.44
2022-11-18T14:10:42.924Z,100609.34
2022-11-18T14:15:45.758Z,100608.16
2022-11-18T14:20:54.913Z,100629.88
2022-11-18T14:25:59.754Z,100625.06
2022-11-18T14:31:06.642Z,100625.81
2022-11-18T14:36:14.938Z,100639.63
2022-11-18T14:41:44.281Z,100644.22
2022-11-18T14:46:52.195Z,100651.44
2022-11-18T14:51:56.516Z,100659.94
2022-11-18T14:57:02.081Z,100655.31
2022-11-18T15:02:04.952Z,100658.72
2022-11-18T15:07:12.289Z,100672.69
2022-11-18T15:12:15.227Z,100675.19
2022-11-18T15:17:20.467Z,100676.25
2022-11-18T15:22:25.056Z,100673.53
2022-11-18T15:27:28.131Z,100687.78
2022-11-18T15:32:31.908Z,100693.47
2022-11-18T15:37:36.362Z,100696.34
2022-11-18T15:42:47.491Z,100706.94
2022-11-18T15:47:54.490Z,100715.34
2022-11-18T15:52:58.665Z,100715.91
2022-11-18T15:58:01.489Z,100715.91
2022-11-18T16:03:04.325Z,100722.38
2022-11-18T16:08:08.954Z,100721.81
2022-11-18T16:13:11.751Z,100727.66
2022-11-18T16:18:15.412Z,100731.28
2022-11-18T16:23:19.556Z,100747.47
2022-11-18T16:28:24.817Z,100754.03
2022-11-18T16:33:27.595Z,100759.16
2022-11-18T16:38:32.152Z,100772.81
2022-11-18T16:43:34.960Z,100769.94
2022-11-18T16:48:37.734Z,100784.91
2022-11-18T16:53:42.030Z,100778.09
2022-11-18T16:58:44.825Z,100786.94
2022-11-18T17:03:47.581Z,100786.06
2022-11-18T17:08:52.224Z,100790.66
2022-11-18T17:13:58.210Z,100801.69
2022-11-18T17:19:03.722Z,100804.78
2022-11-18T17:24:13.764Z,100795.94
2022-11-18T17:29:17.003Z,100795.44
2022-11-18T17:34:20.279Z,100796.50
2022-11-18T17:39:24.734Z,100800.38
2022-11-18T17:44:29.672Z,100807.63
2022-11-18T17:49:32.427Z,100807.28
2022-11-18T17:54:37.363Z,100815.81
2022-11-18T17:59:40.170Z,100831.50
2022-11-18T18:04:42.918Z,100830.84
2022-11-18T18:09:47.276Z,100841.06
2022-11-18T18:14:50.060Z,100848.88
2022-11-18T18:19:52.836Z,100860.63
2022-11-18T18:24:57.024Z,100863.72
2022-11-18T18:29:59.876Z,100859.78
2022-11-18T18:35:02.666Z,100871.22
2022-11-18T18:40:08.055Z,100879.94
2022-11-18T18:45:29.324Z,100887.56
2022-11-18T18:50:32.803Z,100881.22
2022-11-18T18:55:41.934Z,100891.34
2022-11-18T19:00:48.246Z,100893.41
2022-11-18T19:06:22.259Z,100893.81
2022-11-18T19:11:33.844Z,100898.50
2022-11-18T19:16:37.778Z,100893.81
2022-11-18T19:21:40.904Z,100901.28
2022-11-18T19:26:45.590Z,100909.25
2022-11-18T19:31:48.619Z,100901.13
2022-11-18T19:36:51.533Z,100903.00
2022-11-18T19:41:58.980Z,100906.34
2022-11-18T19:47:01.832Z,100925.78
2022-11-18T19:52:04.782Z,100924.84
2022-11-18T19:57:09.090Z,100928.53
2022-11-18T20:02:12.725Z,100934.75
2022-11-18T20:07:15.671Z,100939.25
2022-11-18T20:12:19.977Z,100946.34
2022-11-18T20:17:47.048Z,100956.53
2022-11-18T20:22:50.141Z,100954.44
2022-11-18T20:27:54.841Z,100960.47
2022-11-18T20:32:59.466Z,100953.22
2022-11-18T20:38:02.703Z,100956.34
2022-11-18T20:43:12.720Z,100966.69
2022-11-18T20:48:15.617Z,100979.84
2022-11-18T20:53:18.927Z,100988.72
2022-11-18T20:58:24.462Z,101000.03
2022-11-18T21:03:27.323Z,100999.78
2022-11-18T21:08:30.457Z,101013.63
2022-11-18T21:13:52.493Z,101016.97
2022-11-18T21:18:56.131Z,101022.31
2022-11-18T21:24:01.185Z,101021.34
2022-11-18T21:29:07.953Z,101029.00
2022-11-18T21:34:11.982Z,101031.34
2022-11-18T21:39:15.362Z,101042.28
2022-11-18T21:44:19.933Z,101033.81
2022-11-18T21:49:23.321Z,101038.16
2022-11-18T21:54:26.596Z,101045.63
2022-11-18T21:59:30.789Z,101045.59
2022-11-18T22:04:47.573Z,101037.94
2022-11-18T22:09:50.484Z,101049.81
2022-11-18T22:14:58.810Z,101058.53
2022-11-18T22:20:01.713Z,101058.16
2022-11-18T22:25:04.748Z,101074.66
2022-11-18T22:30:10.321Z,101072.84
2022-11-18T22:35:13.251Z,101072.47
2022-11-18T22:40:16.189Z,101082.28
2022-11-18T22:45:20.525Z,101088.09
2022-11-18T22:50:23.320Z,101090.09
2022-11-18T22:55:26.088Z,101090.97
2022-11-18T23:00:31.195Z,101087.91
2022-11-18T23:05:36.613Z,101094.97
2022-11-18T23:10:39.380Z,101101.16
2022-11-18T23:15:43.654Z,101106.41
2022-11-18T23:20:46.424Z,101111.47
2022-11-18T23:25:49.240Z,101109.09
2022-11-18T23:30:53.495Z,101117.03
2022-11-18T23:35:56.373Z,101122.44
2022-11-18T23:41:00.380Z,101130.94
2022-11-18T23:46:05.494Z,101125.31
2022-11-18T23:51:10.164Z,101129.69
2022-11-18T23:56:15.168Z,101122.03
